Time;durP1;ratioP1;P1;durP2;ratioP2;P2;SDS_P1;SDS_P2;PMS_P1;PMS_P2;Temp;Humidity;BMP_temperature;BMP_pressure;BME280_temperature;BME280_humidity;BME280_pressure;Samples;Min_cycle;Max_cycle;Signal;HPM_P1;HPM_P2
2023/05/28 00:00:22;;;;;;;10.10;3.80;;;;;;;24.57;31.62;100284.95;107199;1264;60111;-67
2023/05/28 00:02:49;;;;;;;11.90;4.10;;;;;;;24.97;31.11;100289.00;107231;1265;60099;-67
2023/05/28 00:05:17;;;;;;;17.20;4.20;;;;;;;25.14;30.85;100287.52;107248;1266;73072;-68
2023/05/28 00:07:44;;;;;;;11.10;4.20;;;;;;;25.28;30.49;100286.61;107256;1266;70064;-68
2023/05/28 00:10:11;;;;;;;10.50;4.30;;;;;;;25.29;30.58;100286.63;107204;1267;72642;-68
2023/05/28 00:12:39;;;;;;;15.50;3.40;;;;;;;25.35;30.46;100291.45;107237;1263;154446;-68
2023/05/28 00:15:07;;;;;;;10.20;3.80;;;;;;;25.21;30.53;100293.69;107415;1264;60522;-69
2023/05/28 00:17:35;;;;;;;9.60;3.70;;;;;;;25.16;30.63;100293.33;108174;1251;72235;-68
2023/05/28 00:20:04;;;;;;;12.80;3.90;;;;;;;25.11;30.56;100293.79;108162;1251;69496;-68
2023/05/28 00:22:32;;;;;;;16.80;4.10;;;;;;;24.86;30.85;100291.21;108123;1251;71583;-67
2023/05/28 00:24:59;;;;;;;13.50;4.90;;;;;;;25.02;30.70;100296.42;108127;1251;59507;-68
2023/05/28 00:27:27;;;;;;;10.00;3.50;;;;;;;25.07;30.45;100297.34;108172;1252;59500;-69
2023/05/28 00:29:55;;;;;;;6.40;3.50;;;;;;;25.06;30.52;100296.76;108358;1253;73460;-68
2023/05/28 00:32:22;;;;;;;10.40;3.70;;;;;;;25.03;30.35;100300.83;108198;1252;68700;-68
2023/05/28 00:34:50;;;;;;;12.50;4.10;;;;;;;25.14;30.27;100299.63;108117;1253;73136;-69
2023/05/28 00:37:17;;;;;;;12.30;3.90;;;;;;;24.75;30.72;100299.12;108112;1255;60853;-69
2023/05/28 00:39:46;;;;;;;13.40;4.20;;;;;;;24.71;30.81;100299.88;108086;1252;59402;-68
2023/05/28 00:42:14;;;;;;;8.40;3.60;;;;;;;24.65;30.83;100301.86;107989;1252;71777;-68
2023/05/28 00:44:42;;;;;;;11.00;4.00;;;;;;;24.23;31.32;100304.43;108076;1251;70021;-68
2023/05/28 00:47:10;;;;;;;11.30;3.70;;;;;;;24.55;30.85;100304.55;108241;1253;71386;-69
2023/05/28 00:49:37;;;;;;;11.70;3.70;;;;;;;24.42;31.13;100302.21;108121;1253;59893;-69
2023/05/28 00:52:05;;;;;;;8.80;3.90;;;;;;;24.44;30.99;100300.56;108241;1252;60122;-69
2023/05/28 00:54:34;;;;;;;10.80;3.50;;;;;;;24.45;30.97;100299.55;108145;1252;73096;-68
2023/05/28 00:57:01;;;;;;;12.30;3.90;;;;;;;24.24;31.13;100300.41;108079;1252;69165;-68
2023/05/28 00:59:28;;;;;;;7.40;3.60;;;;;;;23.63;31.77;100304.77;108019;1254;72655;-68
2023/05/28 01:01:56;;;;;;;13.00;4.00;;;;;;;23.28;32.58;100310.58;107913;1253;60252;-67
2023/05/28 01:04:24;;;;;;;11.90;4.10;;;;;;;23.16;32.47;100306.25;108025;1253;59871;-67
2023/05/28 01:06:52;;;;;;;7.30;3.50;;;;;;;22.96;32.70;100306.70;107975;1253;73007;-68
2023/05/28 01:09:19;;;;;;;8.20;3.40;;;;;;;23.20;32.50;100303.79;107999;1253;68897;-67
2023/05/28 01:11:49;;;;;;;8.60;4.30;;;;;;;23.00;32.70;100307.30;107931;1253;72530;-68
2023/05/28 01:14:16;;;;;;;9.10;3.40;;;;;;;23.20;32.58;100308.28;108029;1253;60587;-68
2023/05/28 01:16:44;;;;;;;22.50;4.30;;;;;;;23.34;32.40;100307.42;107886;1253;59501;-67
2023/05/28 01:19:16;;;;;;;8.80;3.90;;;;;;;23.45;32.04;100307.44;108023;1253;72580;-67
2023/05/28 01:21:43;;;;;;;14.10;3.70;;;;;;;23.87;31.49;100312.00;107887;1253;69279;-67
2023/05/28 01:24:13;;;;;;;8.90;3.70;;;;;;;23.91;31.30;100317.20;107906;1260;71767;-68
2023/05/28 01:26:42;;;;;;;7.50;4.10;;;;;;;24.11;31.15;100316.86;108026;1253;60009;-67
2023/05/28 01:29:15;;;;;;;8.50;3.40;;;;;;;24.31;30.99;100322.58;107996;1253;59636;-68
2023/05/28 01:31:43;;;;;;;12.30;3.90;;;;;;;24.25;30.72;100326.46;108066;1253;73072;-67
2023/05/28 01:34:10;;;;;;;9.80;3.70;;;;;;;24.15;31.06;100327.09;108039;1253;68728;-68
2023/05/28 01:36:58;;;;;;;7.80;3.80;;;;;;;24.14;31.21;100331.98;107871;1256;74679;-68
2023/05/28 01:39:27;;;;;;;12.30;3.80;;;;;;;24.00;31.16;100335.58;107930;1253;61699;-68
2023/05/28 01:41:54;;;;;;;12.40;3.40;;;;;;;24.00;31.42;100338.95;108060;1253;59522;-68
2023/05/28 01:44:22;;;;;;;10.70;3.40;;;;;;;24.03;31.33;100341.08;107836;1253;73106;-68
2023/05/28 01:46:52;;;;;;;9.60;3.70;;;;;;;24.13;31.29;100340.72;107749;1253;69487;-67
2023/05/28 01:49:21;;;;;;;7.80;3.20;;;;;;;24.01;31.38;100342.13;107968;1254;72661;-68
2023/05/28 01:51:50;;;;;;;10.00;3.60;;;;;;;24.13;31.13;100338.03;107830;1253;60395;-68
2023/05/28 01:54:18;;;;;;;9.10;3.50;;;;;;;24.13;31.22;100340.77;108089;1253;58976;-67
2023/05/28 01:56:46;;;;;;;17.40;3.70;;;;;;;23.79;31.66;100341.38;108091;1253;73184;-69
2023/05/28 01:59:13;;;;;;;5.50;3.50;;;;;;;23.81;31.68;100344.50;107994;1253;68841;-68
2023/05/28 02:01:42;;;;;;;11.00;3.60;;;;;;;23.91;31.65;100343.03;108063;1253;72839;-67
2023/05/28 02:04:09;;;;;;;9.30;3.30;;;;;;;23.91;31.44;100349.16;107906;1253;61735;-68
2023/05/28 02:06:37;;;;;;;5.20;2.80;;;;;;;23.88;31.67;100349.38;108004;1253;60038;-68
2023/05/28 02:09:05;;;;;;;10.40;3.60;;;;;;;23.78;31.77;100353.22;108036;1253;73051;-68
2023/05/28 02:11:33;;;;;;;6.80;3.10;;;;;;;23.56;31.84;100350.08;108092;1253;70533;-69
2023/05/28 02:14:00;;;;;;;12.70;4.00;;;;;;;23.44;32.24;100352.17;108045;1257;72433;-68
2023/05/28 02:16:28;;;;;;;6.80;3.10;;;;;;;23.41;32.19;100353.02;108026;1256;62220;-67
2023/05/28 02:18:56;;;;;;;19.50;3.60;;;;;;;23.59;31.88;100351.95;108112;1252;59976;-66
2023/05/28 02:21:23;;;;;;;9.90;3.30;;;;;;;23.41;32.02;100354.05;108018;1253;73403;-67
2023/05/28 02:23:51;;;;;;;11.50;3.80;;;;;;;23.20;32.37;100354.09;108073;1252;70232;-68
2023/05/28 02:26:18;;;;;;;11.00;3.40;;;;;;;23.33;32.38;100357.13;108027;1253;71825;-67
2023/05/28 02:28:45;;;;;;;6.90;3.00;;;;;;;23.23;32.47;100354.52;108099;1253;61674;-68
2023/05/28 02:31:14;;;;;;;7.90;3.70;;;;;;;23.14;32.52;100357.30;108161;1253;59651;-67
2023/05/28 02:33:44;;;;;;;11.60;3.40;;;;;;;23.19;32.45;100358.98;108092;1252;72992;-68
2023/05/28 02:36:13;;;;;;;5.30;3.10;;;;;;;22.90;32.75;100358.28;108091;1253;70060;-67
2023/05/28 02:38:41;;;;;;;8.60;3.40;;;;;;;23.22;32.61;100356.96;108073;1253;72649;-68
2023/05/28 02:41:09;;;;;;;7.30;3.10;;;;;;;23.48;32.05;100356.16;107952;1252;60777;-68
2023/05/28 02:43:37;;;;;;;5.60;3.20;;;;;;;23.41;31.93;100355.88;108134;1252;60353;-67
2023/05/28 02:46:06;;;;;;;8.20;3.00;;;;;;;23.46;32.11;100357.20;108121;1253;72128;-67
2023/05/28 02:48:34;;;;;;;9.10;3.00;;;;;;;23.46;32.23;100356.17;108050;1253;69510;-68
2023/05/28 02:51:02;;;;;;;9.20;3.50;;;;;;;23.66;31.93;100362.23;108037;1253;72624;-67
2023/05/28 02:53:32;;;;;;;13.00;3.50;;;;;;;23.74;31.97;100360.67;108091;1253;61908;-68
2023/05/28 02:56:00;;;;;;;10.10;3.40;;;;;;;23.89;31.48;100359.40;108078;1253;60032;-67
2023/05/28 02:58:28;;;;;;;9.20;3.00;;;;;;;23.98;31.43;100355.34;108102;1252;71732;-67
2023/05/28 03:00:56;;;;;;;19.50;3.20;;;;;;;24.06;31.50;100355.90;108135;1253;70097;-68
2023/05/28 03:03:23;;;;;;;7.70;3.20;;;;;;;24.19;31.16;100355.04;107899;1253;71416;-67
2023/05/28 03:05:52;;;;;;;5.40;3.20;;;;;;;24.13;31.64;100358.77;108005;1253;62438;-67
2023/05/28 03:08:20;;;;;;;7.40;3.20;;;;;;;24.16;31.31;100359.65;107932;1259;59622;-67
2023/05/28 03:10:47;;;;;;;8.40;2.90;;;;;;;24.34;31.45;100361.95;107926;1253;72115;-67
2023/05/28 03:13:15;;;;;;;8.10;3.00;;;;;;;24.46;31.30;100363.70;107745;1253;72110;-68
2023/05/28 03:15:42;;;;;;;8.10;3.20;;;;;;;24.58;30.79;100364.23;108032;1253;71390;-68
2023/05/28 03:18:10;;;;;;;6.90;2.90;;;;;;;24.35;30.99;100373.89;108048;1256;60991;-68
2023/05/28 03:20:39;;;;;;;7.50;2.80;;;;;;;24.34;31.05;100378.61;107983;1253;59245;-70
2023/05/28 03:23:07;;;;;;;7.30;3.70;;;;;;;24.60;30.70;100375.17;108063;1253;71714;-69
2023/05/28 03:25:43;;;;;;;11.00;2.90;;;;;;;24.68;30.74;100375.77;107986;1253;70872;-66
2023/05/28 03:28:10;;;;;;;8.20;3.00;;;;;;;24.51;30.74;100379.77;107924;1253;71211;-68
2023/05/28 03:30:48;;;;;;;8.70;3.00;;;;;;;24.92;30.29;100384.77;108090;1256;59900;-67
2023/05/28 03:33:16;;;;;;;11.10;3.60;;;;;;;25.03;30.13;100384.79;108025;1253;59411;-67
2023/05/28 03:35:43;;;;;;;20.70;3.20;;;;;;;25.39;29.60;100389.39;107924;1253;71790;-67
2023/05/28 03:38:11;;;;;;;14.40;3.20;;;;;;;25.31;29.69;100390.94;107861;1253;70153;-66
2023/05/28 03:40:38;;;;;;;6.50;2.70;;;;;;;25.39;29.57;100390.85;107905;1253;72543;-66
2023/05/28 03:43:07;;;;;;;5.80;3.20;;;;;;;25.51;29.12;100390.27;107958;1253;59655;-66
2023/05/28 03:45:35;;;;;;;6.90;3.10;;;;;;;25.81;29.11;100389.36;108030;1253;59649;-68
2023/05/28 03:48:03;;;;;;;6.10;2.60;;;;;;;26.09;28.28;100393.80;107906;1259;73383;-68
2023/05/28 03:50:31;;;;;;;5.80;2.70;;;;;;;26.37;28.15;100386.54;107905;1253;68881;-68
2023/05/28 03:52:58;;;;;;;8.80;3.40;;;;;;;26.57;27.63;100384.06;107986;1253;72945;-67
2023/05/28 03:55:27;;;;;;;7.70;2.70;;;;;;;26.39;26.98;100390.90;107900;1253;59626;-68
2023/05/28 03:57:54;;;;;;;6.30;2.70;;;;;;;26.36;27.60;100390.06;107923;1260;61265;-68
2023/05/28 04:00:22;;;;;;;5.80;2.70;;;;;;;26.53;27.37;100388.16;107941;1255;72034;-70
2023/05/28 04:02:50;;;;;;;5.00;2.50;;;;;;;26.81;26.90;100384.72;107935;1255;69191;-68
2023/05/28 04:05:17;;;;;;;7.80;3.10;;;;;;;26.88;26.43;100384.16;107882;1254;71167;-65
2023/05/28 04:07:45;;;;;;;7.40;2.90;;;;;;;26.82;26.38;100386.38;107839;1254;60445;-68
2023/05/28 04:10:13;;;;;;;6.00;2.80;;;;;;;26.74;26.11;100385.77;107854;1254;60749;-68
2023/05/28 04:12:40;;;;;;;7.50;2.50;;;;;;;26.24;26.60;100385.71;107843;1255;73868;-67
2023/05/28 04:15:08;;;;;;;3.90;2.60;;;;;;;26.22;26.45;100388.79;107867;1254;68340;-68
2023/05/28 04:17:36;;;;;;;4.30;2.30;;;;;;;26.30;26.37;100388.48;107793;1257;71446;-68
2023/05/28 04:20:07;;;;;;;9.50;2.20;;;;;;;26.44;26.04;100395.05;107878;1254;60429;-68
2023/05/28 04:22:34;;;;;;;;;;;;;;;26.84;25.72;100394.17;107911;1256;60485;-68
2023/05/28 04:25:02;;;;;;;9.30;2.30;;;;;;;27.13;25.38;100394.95;107906;1255;73860;-68
2023/05/28 04:27:30;;;;;;;6.90;2.10;;;;;;;27.40;24.98;100393.77;107981;1256;69376;-70
2023/05/28 04:29:59;;;;;;;7.60;2.70;;;;;;;27.52;24.65;100392.05;107935;1254;72432;-67
2023/05/28 04:32:27;;;;;;;5.10;2.50;;;;;;;27.70;24.62;100396.80;107938;1256;60445;-68
2023/05/28 04:34:55;;;;;;;7.40;2.50;;;;;;;28.00;24.38;100395.89;107960;1254;60317;-68
2023/05/28 04:37:24;;;;;;;8.10;2.50;;;;;;;28.13;23.85;100400.53;107940;1254;73821;-68
2023/05/28 04:39:52;;;;;;;6.60;2.10;;;;;;;28.33;23.43;100394.63;107929;1254;69870;-68
2023/05/28 04:42:20;;;;;;;4.30;2.20;;;;;;;28.53;22.87;100400.08;107941;1254;71599;-67
2023/05/28 04:44:47;;;;;;;5.10;2.20;;;;;;;28.97;22.54;100395.86;107975;1255;60268;-69
2023/05/28 04:47:14;;;;;;;4.60;2.20;;;;;;;29.02;22.55;100400.66;107953;1256;60505;-67
2023/05/28 04:49:42;;;;;;;5.60;2.20;;;;;;;29.25;22.97;100401.08;107911;1256;73843;-68
2023/05/28 04:52:09;;;;;;;7.30;2.00;;;;;;;28.98;22.96;100408.86;107993;1254;70643;-70
2023/05/28 04:54:36;;;;;;;5.60;2.30;;;;;;;29.46;22.75;100409.14;107911;1256;71422;-69
2023/05/28 04:57:06;;;;;;;6.40;2.40;;;;;;;29.94;21.95;100410.04;107978;1258;60477;-68
2023/05/28 04:59:35;;;;;;;4.90;2.50;;;;;;;30.11;21.72;100410.34;108114;1257;60332;-67
2023/05/28 05:02:03;;;;;;;5.80;1.90;;;;;;;30.44;21.40;100416.54;107928;1253;72642;-67
2023/05/28 05:04:31;;;;;;;7.20;2.10;;;;;;;30.41;20.96;100416.29;108050;1253;68562;-67
2023/05/28 05:06:59;;;;;;;7.10;2.60;;;;;;;30.36;20.99;100420.48;107883;1256;72904;-68
2023/05/28 05:09:27;;;;;;;7.10;2.50;;;;;;;30.73;20.98;100416.14;108082;1253;60365;-68
2023/05/28 05:11:55;;;;;;;6.90;2.40;;;;;;;30.38;21.46;100420.41;107936;1253;60525;-67
2023/05/28 05:14:22;;;;;;;6.10;1.90;;;;;;;30.54;21.28;100421.64;107886;1260;74251;-69
2023/05/28 05:16:50;;;;;;;3.00;1.80;;;;;;;30.76;21.04;100417.60;108063;1253;69966;-67
2023/05/28 05:19:17;;;;;;;8.80;2.00;;;;;;;30.77;21.00;100416.95;108030;1253;72817;-68
2023/05/28 05:21:44;;;;;;;6.00;2.20;;;;;;;30.68;20.67;100418.76;107917;1253;60529;-68
2023/05/28 05:24:12;;;;;;;14.10;2.50;;;;;;;31.38;20.59;100411.56;107984;1253;60331;-67
2023/05/28 05:26:40;;;;;;;4.90;2.00;;;;;;;31.72;19.85;100405.73;107901;1253;72376;-68
2023/05/28 05:29:07;;;;;;;8.90;2.10;;;;;;;31.54;19.95;100404.90;107976;1258;69830;-67
2023/05/28 05:31:35;;;;;;;4.70;1.90;;;;;;;31.31;19.99;100408.53;107952;1256;71637;-67
2023/05/28 05:34:05;;;;;;;19.80;2.20;;;;;;;31.12;20.35;100413.13;107948;1253;60520;-68
2023/05/28 05:37:05;;;;;;;5.60;2.10;;;;;;;31.27;20.48;100413.73;107723;1253;60365;-68
2023/05/28 05:40:05;;;;;;;4.10;2.00;;;;;;;31.45;20.22;100416.52;107566;1253;73813;-68
2023/05/28 05:42:49;;;;;;;5.20;2.20;;;;;;;31.67;20.12;100420.77;108093;1253;69160;-68
2023/05/28 05:45:17;;;;;;;5.30;1.90;;;;;;;32.26;19.93;100417.50;108112;1253;72163;-69
2023/05/28 05:47:45;;;;;;;13.30;2.10;;;;;;;32.58;19.57;100424.09;107924;1253;60506;-67
2023/05/28 05:50:13;;;;;;;6.30;2.00;;;;;;;33.03;19.18;100417.48;108128;1253;60210;-67
2023/05/28 05:52:41;;;;;;;8.00;2.20;;;;;;;33.07;18.86;100420.39;108046;1253;73827;-68
2023/05/28 05:55:09;;;;;;;7.60;2.10;;;;;;;32.96;18.80;100416.58;107984;1258;69568;-69
2023/05/28 05:57:36;;;;;;;5.20;1.80;;;;;;;33.33;18.59;100412.64;108100;1253;72709;-71
2023/05/28 06:00:06;;;;;;;6.10;1.90;;;;;;;33.60;18.58;100411.48;108254;1254;60341;-68
2023/05/28 06:02:39;;;;;;;5.30;1.80;;;;;;;33.91;18.47;100418.29;108237;1258;59247;-68
2023/05/28 06:05:45;;;;;;;7.80;2.00;;;;;;;34.15;17.90;100417.63;107566;1260;63665;-67
2023/05/28 06:08:33;;;;;;;6.20;1.70;;;;;;;33.85;18.24;100417.80;107549;1265;70824;-70
2023/05/28 06:11:09;;;;;;;3.60;1.60;;;;;;;33.89;18.01;100413.92;107858;1254;63723;-70
2023/05/28 06:13:37;;;;;;;13.00;2.00;;;;;;;34.22;17.94;100417.41;108169;1254;60277;-69
2023/05/28 06:16:05;;;;;;;5.40;1.60;;;;;;;34.33;17.80;100419.30;108139;1256;60316;-69
2023/05/28 06:18:32;;;;;;;9.70;1.70;;;;;;;34.27;17.93;100418.31;107942;1253;63624;-69
2023/05/28 06:21:03;;;;;;;;;;;;;;;34.24;17.81;100423.05;108067;1253;60202;-67
2023/05/28 06:23:32;;;;;;;6.50;1.60;;;;;;;34.14;17.84;100422.16;108106;1254;62510;-68
2023/05/28 06:25:59;;;;;;;7.40;1.70;;;;;;;34.45;17.62;100426.06;108050;1257;60425;-67
2023/05/28 06:28:27;;;;;;;4.60;1.60;;;;;;;34.41;17.61;100421.09;108176;1255;60530;-68
2023/05/28 06:30:54;;;;;;;4.30;1.80;;;;;;;34.53;17.54;100418.78;108187;1253;63792;-70
2023/05/28 06:33:22;;;;;;;2.80;1.50;;;;;;;34.67;17.23;100415.48;108222;1256;60997;-68
2023/05/28 06:35:49;;;;;;;5.00;1.80;;;;;;;34.98;17.11;100414.10;108221;1254;63933;-68
2023/05/28 06:38:17;;;;;;;7.00;1.60;;;;;;;35.04;17.27;100419.23;108089;1254;60546;-69
2023/05/28 06:40:44;;;;;;;4.80;1.50;;;;;;;35.00;17.39;100420.45;108022;1253;60392;-70
2023/05/28 06:43:12;;;;;;;7.60;1.70;;;;;;;35.11;17.16;100424.13;108148;1258;64986;-68
2023/05/28 06:46:12;;;;;;;4.70;1.70;;;;;;;35.26;16.77;100425.48;108050;1253;60822;-70
2023/05/28 06:48:39;;;;;;;5.20;1.70;;;;;;;35.19;17.04;100420.90;108224;1253;63953;-68
2023/05/28 06:51:06;;;;;;;12.70;1.60;;;;;;;35.42;16.94;100420.13;108190;1254;60472;-70
2023/05/28 06:53:34;;;;;;;5.60;1.60;;;;;;;35.50;16.94;100418.50;108159;1259;60457;-68
2023/05/28 06:56:02;;;;;;;5.30;1.70;;;;;;;35.59;16.69;100414.71;108159;1253;63673;-69
2023/05/28 06:58:45;;;;;;;4.60;1.80;;;;;;;35.34;16.88;100411.06;108159;1253;61356;-69
2023/05/28 07:01:15;;;;;;;10.00;1.70;;;;;;;35.90;17.06;100406.80;108147;1253;75081;-69
2023/05/28 07:04:01;;;;;;;3.70;1.90;;;;;;;36.39;16.60;100406.71;108194;1253;60316;-70
2023/05/28 07:06:33;;;;;;;6.20;1.60;;;;;;;37.02;16.23;100404.61;108191;1253;60490;-69
2023/05/28 07:09:01;;;;;;;5.10;1.50;;;;;;;37.00;15.73;100401.81;108048;1253;65153;-69
2023/05/28 07:11:28;;;;;;;4.60;1.80;;;;;;;36.59;16.21;100402.86;107957;1253;60454;-69
2023/05/28 07:13:56;;;;;;;5.40;1.90;;;;;;;36.75;16.46;100406.92;108005;1253;62796;-68
2023/05/28 07:16:24;;;;;;;3.40;1.60;;;;;;;37.17;16.45;100406.66;108096;1253;60366;-69
2023/05/28 07:18:52;;;;;;;5.70;1.80;;;;;;;37.48;15.95;100404.73;108092;1253;60285;-69
2023/05/28 07:21:20;;;;;;;6.90;1.60;;;;;;;37.89;15.70;100405.55;107959;1253;64922;-68
2023/05/28 07:23:48;;;;;;;5.00;1.50;;;;;;;38.10;15.52;100404.08;108184;1253;60424;-68
2023/05/28 07:26:15;;;;;;;7.00;1.80;;;;;;;38.22;15.31;100403.32;107963;1254;62720;-68
2023/05/28 07:28:44;;;;;;;6.20;1.80;;;;;;;38.20;15.44;100400.36;108169;1253;59164;-69
2023/05/28 07:31:11;;;;;;;4.30;1.50;;;;;;;38.07;15.40;100399.55;108191;1252;60309;-69
2023/05/28 07:33:39;;;;;;;5.30;1.60;;;;;;;37.93;15.38;100392.81;108116;1253;63641;-70
2023/05/28 07:36:08;;;;;;;4.00;1.80;;;;;;;37.64;15.48;100390.98;108181;1253;61321;-69
2023/05/28 07:38:36;;;;;;;3.20;1.60;;;;;;;37.50;15.48;100384.33;108086;1253;63744;-69
2023/05/28 07:41:04;;;;;;;3.80;1.80;;;;;;;37.47;16.01;100383.67;108139;1253;60352;-70
2023/05/28 07:43:45;;;;;;;7.10;1.80;;;;;;;37.57;15.80;100385.20;108192;1253;60294;-70
2023/05/28 07:46:17;;;;;;;5.40;2.00;;;;;;;37.68;15.66;100384.74;108181;1253;65158;-69
2023/05/28 07:48:49;;;;;;;5.20;1.60;;;;;;;37.80;15.62;100376.86;108268;1253;60547;-68
2023/05/28 07:51:22;;;;;;;3.70;1.60;;;;;;;37.94;15.75;100376.98;108092;1253;63760;-69
2023/05/28 07:54:00;;;;;;;5.00;1.60;;;;;;;37.99;15.65;100371.02;107953;1253;60585;-69
2023/05/28 07:56:28;;;;;;;5.10;1.60;;;;;;;38.23;15.77;100375.01;108208;1253;60350;-69
2023/05/28 07:58:56;;;;;;;3.50;1.40;;;;;;;38.52;15.66;100377.02;107993;1253;65019;-69
2023/05/28 08:01:23;;;;;;;9.60;1.90;;;;;;;38.52;15.51;100373.55;108160;1256;60949;-69
2023/05/28 08:03:54;;;;;;;6.40;1.70;;;;;;;38.23;15.63;100373.66;108156;1253;64819;-70
2023/05/28 08:06:25;;;;;;;5.10;1.90;;;;;;;38.40;15.49;100380.89;108127;1253;60456;-69
2023/05/28 08:08:54;;;;;;;4.00;1.80;;;;;;;37.86;15.53;100371.59;108192;1253;60335;-69
2023/05/28 08:11:22;;;;;;;5.90;1.90;;;;;;;37.50;15.92;100370.30;108149;1253;67007;-70
2023/05/28 08:13:49;;;;;;;8.90;1.80;;;;;;;37.76;16.26;100369.17;108216;1253;60512;-69
2023/05/28 08:16:17;;;;;;;11.50;1.40;;;;;;;38.35;15.91;100376.33;108143;1252;63705;-69
2023/05/28 08:19:03;;;;;;;4.40;1.60;;;;;;;38.45;15.41;100371.49;108146;1253;60348;-67
2023/05/28 08:21:31;;;;;;;10.20;1.60;;;;;;;37.86;15.60;100368.58;107970;1253;59867;-68
2023/05/28 08:24:00;;;;;;;10.40;1.70;;;;;;;37.64;15.67;100372.23;108080;1252;63707;-69
2023/05/28 08:26:28;;;;;;;2.70;1.60;;;;;;;37.65;15.66;100367.86;108071;1256;61381;-68
2023/05/28 08:28:56;;;;;;;5.30;1.80;;;;;;;37.59;15.82;100361.36;108193;1254;64355;-69
2023/05/28 08:31:24;;;;;;;8.80;1.90;;;;;;;37.65;15.83;100361.02;107895;1259;60408;-69
2023/05/28 08:34:21;;;;;;;3.80;1.60;;;;;;;38.33;15.14;100368.09;108021;1253;60432;-68
2023/05/28 08:36:48;;;;;;;14.70;1.90;;;;;;;38.34;15.38;100365.73;107965;1253;65114;-69
2023/05/28 08:39:23;;;;;;;12.90;1.50;;;;;;;38.40;15.15;100364.49;107940;1260;61450;-70
2023/05/28 08:41:51;;;;;;;7.30;1.60;;;;;;;38.45;15.16;100364.52;107978;1253;63869;-70
2023/05/28 08:44:19;;;;;;;5.00;1.70;;;;;;;37.97;15.03;100359.81;108054;1258;60312;-69
2023/05/28 08:46:47;;;;;;;6.70;2.00;;;;;;;37.86;15.26;100360.64;108231;1253;59298;-69
2023/05/28 08:49:50;;;;;;;6.00;2.10;;;;;;;37.53;15.37;100362.45;108027;1253;64324;-70
2023/05/28 08:52:19;;;;;;;7.20;1.70;;;;;;;37.68;15.41;100357.80;108083;1253;63267;-69
2023/05/28 08:54:47;;;;;;;3.70;1.60;;;;;;;37.94;15.27;100354.96;108128;1258;63714;-69
2023/05/28 08:57:15;;;;;;;5.40;1.80;;;;;;;38.18;14.95;100355.46;107978;1255;60527;-70
2023/05/28 08:59:47;;;;;;;5.10;1.90;;;;;;;38.45;14.52;100358.62;108082;1258;60160;-70
2023/05/28 09:02:15;;;;;;;5.60;1.50;;;;;;;38.21;14.81;100355.12;107964;1253;63680;-69
2023/05/28 09:04:46;;;;;;;6.60;1.90;;;;;;;38.30;14.82;100360.96;108030;1253;61498;-69
2023/05/28 09:07:15;;;;;;;8.50;1.70;;;;;;;38.29;14.46;100358.30;108205;1253;63778;-69
2023/05/28 09:09:50;;;;;;;5.70;1.90;;;;;;;38.04;14.81;100356.83;107962;1253;60254;-70
2023/05/28 09:12:21;;;;;;;5.50;1.70;;;;;;;38.31;14.78;100356.44;108016;1259;60479;-69
2023/05/28 09:14:52;;;;;;;10.10;1.80;;;;;;;38.82;14.41;100358.42;107995;1258;63719;-70
2023/05/28 09:17:36;;;;;;;6.10;1.60;;;;;;;39.12;14.22;100358.83;108134;1253;60228;-69
2023/05/28 09:20:13;;;;;;;5.20;1.60;;;;;;;38.73;13.93;100362.21;108139;1254;63774;-69
2023/05/28 09:22:41;;;;;;;5.70;1.70;;;;;;;37.74;14.28;100353.52;108156;1253;60547;-70
2023/05/28 09:25:36;;;;;;;6.90;1.90;;;;;;;37.12;15.14;100362.83;107807;1257;60339;-69
2023/05/28 09:28:14;;;;;;;5.40;1.60;;;;;;;36.80;15.09;100359.20;108120;1254;65451;-69
2023/05/28 09:30:42;;;;;;;5.80;2.00;;;;;;;36.89;15.18;100361.15;108171;1253;61380;-68
2023/05/28 09:33:09;;;;;;;13.00;2.70;;;;;;;37.36;15.02;100355.39;108189;1256;62461;-70
2023/05/28 09:35:37;;;;;;;6.20;1.80;;;;;;;37.37;14.31;100361.55;108172;1253;60609;-68
2023/05/28 09:38:10;;;;;;;7.00;1.80;;;;;;;37.16;14.26;100364.30;108228;1255;60293;-69
2023/05/28 09:40:38;;;;;;;2.30;1.50;;;;;;;37.28;14.39;100362.47;108121;1252;65039;-69
2023/05/28 09:43:07;;;;;;;4.60;1.80;;;;;;;37.65;13.73;100356.45;108163;1253;63765;-69
2023/05/28 09:45:34;;;;;;;3.40;1.60;;;;;;;37.49;13.96;100360.92;108131;1257;63722;-68
2023/05/28 09:48:02;;;;;;;6.30;1.80;;;;;;;37.45;14.20;100355.30;108156;1254;60309;-69
2023/05/28 09:50:30;;;;;;;5.40;1.80;;;;;;;37.60;14.22;100358.08;108217;1253;60395;-68
2023/05/28 09:52:58;;;;;;;5.20;1.60;;;;;;;37.80;14.12;100355.98;108134;1253;63656;-70
2023/05/28 09:55:26;;;;;;;5.00;1.70;;;;;;;38.02;13.90;100358.09;108107;1254;60371;-69
2023/05/28 09:58:01;;;;;;;6.90;1.70;;;;;;;38.17;13.56;100361.43;108115;1259;63723;-70
2023/05/28 10:00:35;;;;;;;7.70;1.60;;;;;;;38.24;13.49;100362.85;108173;1253;60435;-69
2023/05/28 10:03:16;;;;;;;6.90;1.80;;;;;;;38.29;13.65;100359.83;108153;1258;60320;-69
2023/05/28 10:05:44;;;;;;;5.30;1.50;;;;;;;38.59;13.33;100363.30;108210;1254;65773;-69
2023/05/28 10:08:14;;;;;;;2.80;1.60;;;;;;;38.25;13.07;100362.38;108158;1253;61382;-69
2023/05/28 10:10:42;;;;;;;6.90;1.70;;;;;;;37.81;13.49;100359.86;108138;1259;63752;-69
2023/05/28 10:13:09;;;;;;;5.80;1.90;;;;;;;37.55;14.23;100347.21;107745;1254;61053;-68
2023/05/28 10:15:37;;;;;;;6.60;1.80;;;;;;;37.44;14.14;100349.33;108034;1254;60353;-69
2023/05/28 10:18:05;;;;;;;4.10;1.60;;;;;;;37.59;14.25;100350.14;108164;1254;64947;-69
2023/05/28 10:20:33;;;;;;;8.90;2.10;;;;;;;37.25;14.21;100357.70;108105;1257;61674;-69
2023/05/28 10:23:01;;;;;;;2.90;1.60;;;;;;;36.77;14.33;100357.23;108157;1256;63730;-68
2023/05/28 10:25:28;;;;;;;4.50;1.80;;;;;;;36.56;14.42;100350.04;108104;1255;60329;-68
2023/05/28 10:28:01;;;;;;;5.50;1.40;;;;;;;36.47;14.93;100346.92;108122;1254;60310;-69
2023/05/28 10:30:35;;;;;;;8.90;1.70;;;;;;;36.53;15.02;100349.85;108166;1258;64218;-68
2023/05/28 10:33:16;;;;;;;3.70;1.40;;;;;;;36.78;14.79;100349.80;108198;1253;62134;-69
2023/05/28 10:35:51;;;;;;;7.10;1.70;;;;;;;36.90;14.48;100351.34;108053;1254;63892;-67
2023/05/28 10:38:19;;;;;;;11.30;2.00;;;;;;;36.73;14.72;100350.35;108052;1254;60365;-69
2023/05/28 10:40:48;;;;;;;7.90;1.80;;;;;;;36.93;14.41;100352.71;107993;1255;60336;-69
2023/05/28 10:43:37;;;;;;;10.90;2.00;;;;;;;37.13;13.97;100351.28;107983;1255;63757;-69
2023/05/28 10:46:14;;;;;;;3.60;1.60;;;;;;;37.29;13.95;100342.80;108080;1258;61412;-69
2023/05/28 10:49:03;;;;;;;3.50;1.40;;;;;;;37.44;14.20;100339.77;108125;1254;62499;-69
2023/05/28 10:51:44;;;;;;;3.80;1.50;;;;;;;37.61;13.78;100345.09;108005;1255;59176;-69
2023/05/28 10:54:33;;;;;;;4.90;1.60;;;;;;;37.61;13.68;100348.52;108048;1259;59110;-69
2023/05/28 10:57:14;;;;;;;4.90;1.50;;;;;;;37.34;13.44;100344.10;107950;1255;74755;-68
2023/05/28 10:59:45;;;;;;;;;;;;;;;36.52;13.72;100345.16;107920;1254;62024;-69
2023/05/28 11:02:26;;;;;;;5.20;1.60;;;;;;;36.15;14.48;100339.15;107972;1254;62454;-68
2023/05/28 11:05:00;;;;;;;;;;;;;;;36.26;14.81;100333.60;108024;1253;59232;-68
2023/05/28 11:07:38;;;;;;;6.10;1.60;;;;;;;36.55;14.16;100335.48;107936;1254;60396;-67
2023/05/28 11:10:07;;;;;;;5.60;1.50;;;;;;;36.57;14.02;100340.36;107863;1254;63702;-69
2023/05/28 11:12:36;;;;;;;4.60;1.60;;;;;;;36.86;13.84;100342.98;108020;1254;61408;-68
2023/05/28 11:15:05;;;;;;;4.00;1.50;;;;;;;37.15;13.43;100345.14;107999;1254;62547;-69
2023/05/28 11:17:42;;;;;;;6.80;1.70;;;;;;;36.90;13.89;100347.34;107998;1254;59600;-69
2023/05/28 11:20:27;;;;;;;4.40;1.80;;;;;;;36.72;13.64;100347.79;108047;1255;60290;-69
2023/05/28 11:22:55;;;;;;;7.90;1.70;;;;;;;36.57;13.80;100348.80;108025;1254;64926;-68
2023/05/28 11:25:26;;;;;;;6.20;1.50;;;;;;;36.37;13.74;100345.77;108008;1258;70891;-69
2023/05/28 11:27:54;;;;;;;5.80;1.60;;;;;;;36.31;14.21;100345.35;108052;1258;63752;-70
2023/05/28 11:30:21;;;;;;;6.50;1.50;;;;;;;36.62;13.96;100348.02;107944;1253;60207;-67